Aérodrome :
LOGIN :

S'inscrire | Disclaimer

   EN    FR    IT 

 










Légende :    VFR   VFR Marginal   IFR   IFR Intensif   IFR Très Intensif
Visi : 
Plafond : 
>= 8 km
>= 3000ft
5 à 8 km
1000 à 3000 ft
1500m à 5 km
500 à 1000 ft
800 à 1500m
200 à 500 ft
< 800m
< 200 ft
Symboles :   Orages  Brouillard  Fortes neiges  Fortes précipitations  Vent > 20 kt
SIGMETs :   Divers  Orages  Givrage  Turbulence  Onde Orograph.  Cendres Volcan.






- Altitude de l'aérodrome : 284 ft


EGUW - RAF Wattisham

DERNIER METAR :
  • 271150Z 35004KT 9999 FEW040 BKN055 19/10 Q1035 NOSIG RMK BLU BLU

METARs EXPIRÉS :
  • 271120Z 09003KT 9999 FEW040 BKN055 19/10 Q1036 NOSIG RMK BLU BLU
  • 271050Z 04003KT 9999 FEW040 BKN054 19/10 Q1036 NOSIG RMK BLU BLU
  • 271020Z 02003KT 9999 FEW040 BKN053 18/09 Q1036 NOSIG RMK BLU BLU
  • 270950Z 03003KT 9999 FEW040 BKN052 18/10 Q1036 NOSIG RMK BLU BLU
  • 270920Z 09003KT 9999 FEW040 BKN052 18/09 Q1036 NOSIG RMK BLU BLU

TAF TAF EGUW
Valide du 27 à 12h jusqu'au 27 à 21h UTC


271022Z 2712/2721 06005KT 9999 SCT040



MET'MAP, la Météo Aéronautique d'un coup d'oeil ! - Copyright ORBIFLY Décembre 2007 - Disclaimer

ORBIFLY MET'MAP TEAM :

Programmation & Développement : Alexandra Zaïnal
Sur une idée originale de : Baudouin d'Aumeries
Assistance à la programmation : Marc-Olivier Méhu
Soutien technique & logistique : Manuel Goepfert

Contact : metmap@orbifly.com




SOURCES & CREDITS :

   NOAA